Isle Of Palms, SC (29451)

11:19 PM EDT on April 18, 2015 (GMT -0400)
Dunescape Condos | | Change Station
CLOSE
Current Station
Personal Weather Station
Location: Isle Of Palms, SC
Elevation: 46 ft
Nearby Weather Stations

Elev 46 ft 32.78 °N, 79.79 °W | Updated 13 minutes ago

Overcast
Overcast
67.6 °F
Feels Like 67.6 °F
N
0.0
Wind Variable Wind from ESE

Today
High -- | Low -- °F
--% Chance of Precip.
Yesterday
High -- | Low -- °F
Precip. -- in
6:46 AM 7:51 PM
New Moon, 0% visible
Pressure 29.99 in
Visibility 7.0 miles
Clouds Overcast 300 ft
Dew Point 67 °F
Humidity 96%
Rainfall 0.00 in
Snow Depth Not available.
UV 0 out of 12
Pollen 5.60 out of 12
Air Quality Not available.
Flu Activity Local Activity
METAR KJZI 190315Z AUTO 00000KT 7SM OVC003 20/19 A2999 RMK A02 P000

More Conditions Fewer Conditions

Pressure 29.99 in
Visibility 7.0 miles
Clouds Overcast 300 ft
Dew Point 67 °F
Humidity 96%
Rainfall 0.00 in
Snow Depth Not available.
UV 0 out of 12
Pollen 5.60 out of 12
Air Quality Not available.
Flu Activity Local Activity
METAR KJZI 190315Z AUTO 00000KT 7SM OVC003 20/19 A2999 RMK A02 P000

More Conditions Fewer Conditions

10-Day Weather Forecast

Almanac

Astronomy

Apr. 18, 2015 Rise Set
Actual Time
Civil Twilight
Nautical Twilight
Astronomical Twilight
Moon
Length of Visible Light
Length of Day
Tomorrow will be .
, % of the Moon is Illuminated

Today's Extremes

State Highs State Lows

Community

WunderPhotos

Upload Photos

1,814,669 photos uploaded!

WunderBlogs® & News

Nearby

Air Quality

  Air Quality AQ Index Pollutant
Not available.

Snow Depth

Station Depth Elevation

Earthquake Activity

City Distance Mag. Time & Date
Minimum magnitude displayed is 2.5.

Coastal Water Temperatures

Place Temperature

Stations

Nearby Weather Stations

Station Location Temp. Windchill Dew Point Humidity Wind Precip. Elev Updated Type